Muzaffargarh Weather



Muzaffargarh's Current Weather

Temprature 23o haze

haze

Rain: 0 %

Min Temprature23o
Max Temprature23o
Humidity35
Wind Speed2.1 m/h
Sun Rise06:47:44
Sun Set18:09:51
Current Time: 23-Feb-2019 15:31:41
Lat/Lon: 30.08, 71.19




Muzaffargarh's Geo Location




Muzaffargarh's Weather Forecast

Time Overall Temp Min Temp Max Temp Humidity Wind Speed Rain
23-Feb-2019 (Sat)
17:00:00 clear sky 21.980 20.749 21.980 56 3.76 m/h 0 %
20:00:00 clear sky 16.930 16.009 16.930 61 3.17 m/h 0 %
23:00:00 scattered clouds 14.050 13.440 14.050 73 3.32 m/h 0 %
24-Feb-2019 (Sun)
02:00:00 scattered clouds 13.120 12.810 13.120 75 2.71 m/h 0 %
05:00:00 scattered clouds 11.892 11.892 11.892 80 2.76 m/h 0 %
08:00:00 clear sky 11.603 11.603 11.603 83 0.31 m/h 0 %
11:00:00 clear sky 17.074 17.074 17.074 90 0.96 m/h 0 %
14:00:00 scattered clouds 19.856 19.856 19.856 82 0.67 m/h 0 %
17:00:00 broken clouds 19.721 19.721 19.721 63 1.75 m/h 0 %
20:00:00 broken clouds 15.418 15.418 15.418 77 1.41 m/h 0 %
23:00:00 clear sky 12.961 12.961 12.961 86 1.21 m/h 0 %
25-Feb-2019 (Mon)
02:00:00 few clouds 11.380 11.380 11.380 84 1.12 m/h 0 %
05:00:00 broken clouds 10.702 10.702 10.702 92 4.51 m/h 0 %
08:00:00 light rain 11.020 11.020 11.020 89 5.07 m/h 2 %
11:00:00 light rain 14.872 14.872 14.872 89 4.36 m/h 1 %
14:00:00 few clouds 17.548 17.548 17.548 86 3.87 m/h 0 %
17:00:00 clear sky 17.837 17.837 17.837 71 2.86 m/h 0 %
20:00:00 scattered clouds 14.673 14.673 14.673 78 2.66 m/h 0 %
23:00:00 clear sky 12.417 12.417 12.417 90 3.46 m/h 0 %
26-Feb-2019 (Tue)
02:00:00 clear sky 10.926 10.926 10.926 92 3.11 m/h 0 %
05:00:00 light rain 10.922 10.922 10.922 95 3.71 m/h 9 %
08:00:00 light rain 11.907 11.907 11.907 87 4.17 m/h 17 %
11:00:00 light rain 14.492 14.492 14.492 91 4.47 m/h 5 %
14:00:00 few clouds 15.871 15.871 15.871 85 4.46 m/h 0 %
17:00:00 clear sky 16.164 16.164 16.164 71 3.21 m/h 0 %
20:00:00 clear sky 12.936 12.936 12.936 72 2.02 m/h 0 %
23:00:00 clear sky 10.348 10.348 10.348 85 1.17 m/h 0 %
27-Feb-2019 (Wed)
02:00:00 clear sky 8.981 8.981 8.981 86 1.26 m/h 0 %
05:00:00 clear sky 8.044 8.044 8.044 86 1.2 m/h 0 %
08:00:00 clear sky 9.440 9.440 9.440 83 1.22 m/h 0 %
11:00:00 clear sky 16.145 16.145 16.145 96 2.41 m/h 0 %
14:00:00 clear sky 18.661 18.661 18.661 83 2 m/h 0 %
17:00:00 clear sky 18.473 18.473 18.473 61 1.71 m/h 0 %
20:00:00 scattered clouds 13.592 13.592 13.592 58 2.07 m/h 0 %
23:00:00 overcast clouds 12.316 12.316 12.316 69 3.22 m/h 0 %
28-Feb-2019 (Thu)
02:00:00 broken clouds 11.841 11.841 11.841 75 3.11 m/h 0 %
05:00:00 overcast clouds 11.538 11.538 11.538 81 3.36 m/h 0 %
08:00:00 broken clouds 12.190 12.190 12.190 81 1.66 m/h 0 %
11:00:00 scattered clouds 15.872 15.872 15.872 86 2.96 m/h 0 %
14:00:00 light rain 17.254 17.254 17.254 81 3.32 m/h 6 %

Famous Cities (60)